createdAt,value
2023-01-05T00:01:33.708Z,91.18
2023-01-05T00:04:01.600Z,91.17
2023-01-05T00:06:29.627Z,90.56
2023-01-05T00:08:57.547Z,89.58
2023-01-05T00:11:46.144Z,89.20
2023-01-05T00:14:32.872Z,88.79
2023-01-05T00:17:18.142Z,88.46
2023-01-05T00:20:03.144Z,87.94
2023-01-05T00:22:34.766Z,87.44
2023-01-05T00:25:11.517Z,87.86
2023-01-05T00:27:43.703Z,88.12
2023-01-05T00:30:13.282Z,88.12
2023-01-05T00:32:42.893Z,88.20
2023-01-05T00:35:11.744Z,88.19
2023-01-05T00:37:40.086Z,88.04
2023-01-05T00:40:10.433Z,87.87
2023-01-05T00:42:38.645Z,87.25
2023-01-05T00:45:10.418Z,86.74
2023-01-05T00:47:38.333Z,86.66
2023-01-05T00:50:07.603Z,86.58
2023-01-05T00:52:35.424Z,86.66
2023-01-05T00:55:03.397Z,86.07
2023-01-05T00:57:31.275Z,86.33
2023-01-05T00:59:59.099Z,86.34
2023-01-05T01:02:28.613Z,86.14
2023-01-05T01:04:56.703Z,86.31
2023-01-05T01:07:25.112Z,86.73
2023-01-05T01:09:53.180Z,85.87
2023-01-05T01:12:21.046Z,85.76
2023-01-05T01:14:49.877Z,85.10
2023-01-05T01:17:18.236Z,84.71
2023-01-05T01:19:47.487Z,84.13
2023-01-05T01:22:15.666Z,84.76
2023-01-05T01:24:43.810Z,84.82
2023-01-05T01:27:11.713Z,84.42
2023-01-05T01:29:39.612Z,84.53
2023-01-05T01:32:08.396Z,83.61
2023-01-05T01:34:36.653Z,82.88
2023-01-05T01:37:05.914Z,83.16
2023-01-05T01:39:34.300Z,82.10
2023-01-05T01:42:02.109Z,82.71
2023-01-05T01:44:55.531Z,81.93
2023-01-05T01:47:33.651Z,81.91
2023-01-05T01:50:04.973Z,81.01
2023-01-05T01:52:35.392Z,81.10
2023-01-05T01:55:07.084Z,81.46
2023-01-05T01:57:36.280Z,81.15
2023-01-05T02:00:07.313Z,81.07
2023-01-05T02:02:35.499Z,81.81
2023-01-05T02:05:08.216Z,81.52
2023-01-05T02:07:41.461Z,81.77
2023-01-05T02:10:10.293Z,81.27
2023-01-05T02:12:48.827Z,80.59
2023-01-05T02:15:25.592Z,80.71
2023-01-05T02:18:10.140Z,80.69
2023-01-05T02:20:50.179Z,80.61
2023-01-05T02:23:45.656Z,79.59
2023-01-05T02:27:01.320Z,79.63
2023-01-05T02:30:05.652Z,79.99
2023-01-05T02:32:39.597Z,79.82
2023-01-05T02:35:14.708Z,78.50
2023-01-05T02:37:47.198Z,78.50
2023-01-05T02:40:20.003Z,78.23
2023-01-05T02:42:51.788Z,77.63
2023-01-05T02:45:19.610Z,77.74
2023-01-05T02:47:49.755Z,77.19
2023-01-05T02:50:22.569Z,77.80
2023-01-05T02:53:02.233Z,76.33
2023-01-05T02:55:34.297Z,77.39
2023-01-05T02:58:06.686Z,76.71
2023-01-05T03:00:39.473Z,76.98
2023-01-05T03:03:13.707Z,75.65
2023-01-05T03:05:47.361Z,75.26
2023-01-05T03:08:25.095Z,75.90
2023-01-05T03:11:20.835Z,74.95
2023-01-05T03:13:52.736Z,74.69
2023-01-05T03:16:26.532Z,75.02
2023-01-05T03:19:16.114Z,75.00
2023-01-05T03:22:02.585Z,75.21
2023-01-05T03:24:48.635Z,75.14
2023-01-05T03:27:34.728Z,74.51
2023-01-05T03:30:19.996Z,74.84
2023-01-05T03:33:09.973Z,74.74
2023-01-05T03:35:45.212Z,75.15
2023-01-05T03:38:19.763Z,75.51
2023-01-05T03:40:47.985Z,76.05
2023-01-05T03:43:16.338Z,76.61
2023-01-05T03:45:47.002Z,76.33
2023-01-05T03:48:14.844Z,76.18
2023-01-05T03:50:44.098Z,76.64
2023-01-05T03:53:11.941Z,76.93
2023-01-05T03:55:39.815Z,77.20
2023-01-05T03:58:07.636Z,77.26
2023-01-05T04:00:35.614Z,77.54
2023-01-05T04:03:03.806Z,77.59
2023-01-05T04:05:31.802Z,77.70
2023-01-05T04:08:01.231Z,77.53
2023-01-05T04:10:29.101Z,77.00
2023-01-05T04:12:57.320Z,77.32
2023-01-05T04:15:25.447Z,77.43
2023-01-05T04:17:53.375Z,77.76
2023-01-05T04:20:21.351Z,78.00
2023-01-05T04:22:49.300Z,77.80
2023-01-05T04:25:18.593Z,78.33
2023-01-05T04:27:46.425Z,78.63
2023-01-05T04:30:14.537Z,78.83
2023-01-05T04:32:42.375Z,79.57
2023-01-05T04:35:11.443Z,79.00
2023-01-05T04:37:39.984Z,79.47
2023-01-05T04:40:08.786Z,79.55
2023-01-05T04:42:38.025Z,79.56
2023-01-05T04:45:06.758Z,79.68
2023-01-05T04:47:34.657Z,80.29
2023-01-05T04:50:02.482Z,80.16
2023-01-05T04:52:30.376Z,80.24
2023-01-05T04:54:58.185Z,80.30
2023-01-05T04:57:26.022Z,79.71
2023-01-05T04:59:55.334Z,80.10
2023-01-05T05:02:23.555Z,80.03
2023-01-05T05:04:51.498Z,79.90
2023-01-05T05:07:19.667Z,79.94
2023-01-05T05:09:47.460Z,79.26
2023-01-05T05:12:15.570Z,80.07
2023-01-05T05:14:43.580Z,79.81
2023-01-05T05:17:12.752Z,80.82
2023-01-05T05:19:40.745Z,81.18
2023-01-05T05:22:08.709Z,81.58
2023-01-05T05:24:36.668Z,81.27
2023-01-05T05:27:04.540Z,81.55
2023-01-05T05:29:32.529Z,81.39
2023-01-05T05:32:00.405Z,81.36
2023-01-05T05:34:29.627Z,80.60
2023-01-05T05:36:57.469Z,80.30
2023-01-05T05:39:25.308Z,80.54
2023-01-05T05:41:53.190Z,80.24
2023-01-05T05:44:21.179Z,79.89
2023-01-05T05:46:49.055Z,80.22
2023-01-05T05:49:16.945Z,80.04
2023-01-05T05:51:46.209Z,80.42
2023-01-05T05:54:14.053Z,79.99
2023-01-05T05:56:41.890Z,80.08
2023-01-05T05:59:09.881Z,80.47
2023-01-05T06:01:37.809Z,80.18
2023-01-05T06:04:06.057Z,79.24
2023-01-05T06:06:33.987Z,79.69
2023-01-05T06:09:03.199Z,79.75
2023-01-05T06:11:31.078Z,79.16
2023-01-05T06:13:59.277Z,79.29
2023-01-05T06:16:27.130Z,79.93
2023-01-05T06:18:55.023Z,80.04
2023-01-05T06:21:22.929Z,80.14
2023-01-05T06:23:50.773Z,80.30
2023-01-05T06:26:20.017Z,79.26
2023-01-05T06:28:47.954Z,80.04
2023-01-05T06:31:15.842Z,80.36
2023-01-05T06:33:43.746Z,80.34
2023-01-05T06:36:12.024Z,79.97
2023-01-05T06:38:39.933Z,79.13
2023-01-05T06:41:07.802Z,79.89
2023-01-05T06:43:37.182Z,78.89
2023-01-05T06:46:05.195Z,79.99
2023-01-05T06:48:33.142Z,79.92
2023-01-05T06:51:01.128Z,79.45
2023-01-05T06:53:29.088Z,79.27
2023-01-05T06:55:56.895Z,79.34
2023-01-05T06:58:24.756Z,79.28
2023-01-05T07:00:55.042Z,79.30
2023-01-05T07:03:23.788Z,78.54
2023-01-05T07:05:52.729Z,78.87
2023-01-05T07:08:20.685Z,78.00
2023-01-05T07:10:48.547Z,78.46
2023-01-05T07:13:16.529Z,77.72
2023-01-05T07:15:44.385Z,77.15
2023-01-05T07:18:13.603Z,76.38
2023-01-05T07:20:41.474Z,76.06
2023-01-05T07:23:09.383Z,75.67
2023-01-05T07:25:37.410Z,74.98
2023-01-05T07:28:05.688Z,74.80
2023-01-05T07:30:33.589Z,75.22
2023-01-05T07:33:02.006Z,74.72
2023-01-05T07:35:31.326Z,75.05
2023-01-05T07:37:59.405Z,75.32
2023-01-05T07:40:28.454Z,75.39
2023-01-05T07:42:56.317Z,75.65
2023-01-05T07:45:24.289Z,75.17
2023-01-05T07:47:52.215Z,76.36
2023-01-05T07:50:20.222Z,75.84
2023-01-05T07:52:49.408Z,75.94
2023-01-05T07:55:17.428Z,76.72
2023-01-05T07:57:47.026Z,76.42
2023-01-05T08:00:15.571Z,76.99
2023-01-05T08:02:43.917Z,77.12
2023-01-05T08:05:11.856Z,77.39
2023-01-05T08:07:39.675Z,77.64
2023-01-05T08:10:28.644Z,77.03
2023-01-05T08:13:14.080Z,77.20
2023-01-05T08:15:46.135Z,77.52
2023-01-05T08:18:18.694Z,78.53
2023-01-05T08:20:51.493Z,78.18
2023-01-05T08:23:26.028Z,78.47
2023-01-05T08:25:56.553Z,78.16
2023-01-05T08:28:29.888Z,78.90
2023-01-05T08:31:03.215Z,78.23
2023-01-05T08:33:31.281Z,79.34
2023-01-05T08:35:59.186Z,80.53
2023-01-05T08:38:27.736Z,82.67
2023-01-05T08:40:59.701Z,85.39
2023-01-05T08:43:27.793Z,87.47
2023-01-05T08:45:55.736Z,87.83
2023-01-05T08:48:24.041Z,89.79
2023-01-05T08:50:52.112Z,90.75
2023-01-05T08:53:19.960Z,90.88
2023-01-05T08:55:47.789Z,91.63
2023-01-05T08:58:17.970Z,91.87
2023-01-05T09:00:45.936Z,91.77
2023-01-05T09:03:13.958Z,92.39
2023-01-05T09:05:43.293Z,92.00
2023-01-05T09:08:11.202Z,92.61
2023-01-05T09:10:39.180Z,93.16
2023-01-05T09:13:07.346Z,91.86
2023-01-05T09:15:37.649Z,92.79
2023-01-05T09:18:05.507Z,92.30
2023-01-05T09:20:39.529Z,92.57
2023-01-05T09:23:07.950Z,91.65
2023-01-05T09:25:35.903Z,90.48
2023-01-05T09:28:03.766Z,89.83
2023-01-05T09:30:40.091Z,89.58
2023-01-05T09:33:11.319Z,88.92
2023-01-05T09:35:39.176Z,87.82
2023-01-05T09:38:07.075Z,86.68
2023-01-05T09:40:41.819Z,87.08
2023-01-05T09:43:15.458Z,87.63
2023-01-05T09:45:43.623Z,87.77
2023-01-05T09:48:16.124Z,88.06
2023-01-05T09:50:44.800Z,86.53
2023-01-05T09:53:14.774Z,86.67
2023-01-05T09:55:45.076Z,86.15
2023-01-05T09:58:17.213Z,86.31
2023-01-05T10:00:50.975Z,86.22
2023-01-05T10:04:01.774Z,85.63
2023-01-05T10:06:15.997Z,84.70
2023-01-05T10:08:46.179Z,84.83
2023-01-05T10:11:35.701Z,84.39
2023-01-05T10:14:10.088Z,84.13
2023-01-05T10:16:38.846Z,83.86
2023-01-05T10:19:14.570Z,83.28
2023-01-05T10:21:55.448Z,82.74
2023-01-05T10:24:35.229Z,81.74
2023-01-05T10:27:26.429Z,82.26
2023-01-05T10:30:00.716Z,81.82
2023-01-05T10:32:49.791Z,81.00
2023-01-05T10:35:59.628Z,80.96
2023-01-05T10:38:35.575Z,82.13
2023-01-05T10:41:15.083Z,81.07
2023-01-05T10:43:57.927Z,81.47
2023-01-05T10:46:35.090Z,80.86
2023-01-05T10:49:09.664Z,81.00
2023-01-05T10:51:39.359Z,80.96
2023-01-05T10:54:08.031Z,79.89
2023-01-05T10:56:35.867Z,80.69
2023-01-05T10:59:11.580Z,80.27
2023-01-05T11:01:44.193Z,80.89
2023-01-05T11:04:33.692Z,81.67
2023-01-05T11:07:06.852Z,82.05
2023-01-05T11:09:41.360Z,81.96
2023-01-05T11:12:19.586Z,82.52
2023-01-05T11:14:58.103Z,83.31
2023-01-05T11:17:29.373Z,83.03
2023-01-05T11:19:59.302Z,82.65
2023-01-05T11:22:35.635Z,81.87
2023-01-05T11:25:24.777Z,82.56
2023-01-05T11:28:12.820Z,83.48
2023-01-05T11:30:50.632Z,83.21
2023-01-05T11:33:26.069Z,83.74
2023-01-05T11:35:54.617Z,83.87
2023-01-05T11:38:26.485Z,84.08
2023-01-05T11:40:56.379Z,83.59
2023-01-05T11:43:25.917Z,82.90
2023-01-05T11:45:56.974Z,83.47
2023-01-05T11:48:28.594Z,82.74
2023-01-05T11:50:58.614Z,82.72
2023-01-05T11:53:37.896Z,82.54
2023-01-05T11:56:15.422Z,82.13
2023-01-05T11:58:44.558Z,82.24
2023-01-05T12:01:46.814Z,82.80
2023-01-05T12:04:30.234Z,81.57
2023-01-05T12:07:09.593Z,81.33
2023-01-05T12:09:43.209Z,81.22
2023-01-05T12:12:34.326Z,80.94
2023-01-05T12:15:19.135Z,80.18
2023-01-05T12:17:58.348Z,78.74
2023-01-05T12:20:52.055Z,79.80
2023-01-05T12:23:47.435Z,79.14
2023-01-05T12:26:27.240Z,78.58
2023-01-05T12:35:34.852Z,78.42
2023-01-05T12:38:16.957Z,79.21
2023-01-05T12:41:02.726Z,78.73
2023-01-05T12:43:48.203Z,78.66
2023-01-05T12:46:31.288Z,78.58
2023-01-05T12:49:03.031Z,77.64
2023-01-05T12:51:36.218Z,78.25
2023-01-05T12:54:08.522Z,78.29
2023-01-05T12:56:41.490Z,77.65
2023-01-05T12:59:22.803Z,77.57
2023-01-05T13:01:57.668Z,77.63
2023-01-05T13:04:46.776Z,77.11
2023-01-05T13:07:22.287Z,77.36
2023-01-05T13:10:02.966Z,77.01
2023-01-05T13:12:33.219Z,76.85
2023-01-05T13:15:15.055Z,77.55
2023-01-05T13:17:48.702Z,76.62
2023-01-05T13:20:35.940Z,75.82
2023-01-05T13:23:07.381Z,76.11
2023-01-05T13:25:43.762Z,76.25
2023-01-05T13:28:20.903Z,74.82
2023-01-05T13:31:08.627Z,74.34
2023-01-05T13:33:55.229Z,74.15
2023-01-05T13:36:34.525Z,73.73
2023-01-05T13:39:35.052Z,74.39
2023-01-05T13:42:34.109Z,74.46
2023-01-05T13:45:24.989Z,74.04
2023-01-05T13:48:13.133Z,74.48
2023-01-05T13:51:07.017Z,74.00
2023-01-05T13:53:39.022Z,74.08
2023-01-05T13:56:14.667Z,74.38
2023-01-05T13:58:45.777Z,73.30
2023-01-05T14:01:17.329Z,73.87
2023-01-05T14:03:52.795Z,73.49
2023-01-05T14:06:25.423Z,73.30
2023-01-05T14:08:57.994Z,74.28
2023-01-05T14:11:27.523Z,73.90
2023-01-05T14:13:58.502Z,74.38
2023-01-05T14:16:55.700Z,73.69
2023-01-05T14:19:43.779Z,73.98
2023-01-05T14:22:37.060Z,73.42
2023-01-05T14:25:53.998Z,74.07
2023-01-05T14:28:46.236Z,73.71
2023-01-05T14:31:52.904Z,74.21
2023-01-05T14:34:22.842Z,74.80
2023-01-05T14:37:03.445Z,75.30
2023-01-05T14:39:40.814Z,75.63
2023-01-05T14:42:18.699Z,76.10
2023-01-05T14:44:51.270Z,78.31
2023-01-05T14:47:34.960Z,77.95
2023-01-05T14:50:05.057Z,78.73
2023-01-05T14:53:02.675Z,78.43
2023-01-05T14:55:39.345Z,78.51
2023-01-05T14:58:13.433Z,78.84
2023-01-05T15:00:50.519Z,78.57
2023-01-05T15:03:28.342Z,79.52
2023-01-05T15:06:01.711Z,79.63
2023-01-05T15:09:05.176Z,80.42
2023-01-05T15:11:45.404Z,80.10
2023-01-05T15:14:48.890Z,81.03
2023-01-05T15:17:53.759Z,81.39
2023-01-05T15:21:02.476Z,82.21
2023-01-05T15:23:54.463Z,81.01
2023-01-05T15:26:45.327Z,81.02
2023-01-05T15:29:51.336Z,81.59
2023-01-05T15:32:22.732Z,81.75
2023-01-05T15:34:55.968Z,81.47
2023-01-05T15:37:30.552Z,81.48
2023-01-05T15:40:04.000Z,81.68
2023-01-05T15:42:39.777Z,81.49
2023-01-05T15:45:16.051Z,80.97
2023-01-05T15:47:44.344Z,81.28
2023-01-05T15:50:20.091Z,82.07
2023-01-05T15:52:55.252Z,81.65
2023-01-05T15:55:25.893Z,82.16
2023-01-05T15:57:56.011Z,82.67
2023-01-05T16:00:26.860Z,83.14
2023-01-05T16:02:55.187Z,82.80
2023-01-05T16:05:25.773Z,82.72
2023-01-05T16:07:57.831Z,82.50
2023-01-05T16:10:30.910Z,82.68
2023-01-05T16:13:06.156Z,82.29
2023-01-05T16:15:36.351Z,82.54
2023-01-05T16:18:07.458Z,82.43
2023-01-05T16:20:38.237Z,81.93
2023-01-05T16:23:16.588Z,82.13
2023-01-05T16:25:54.347Z,82.06
2023-01-05T16:28:24.116Z,82.20
2023-01-05T16:30:53.781Z,81.81
2023-01-05T16:33:34.764Z,81.48
2023-01-05T16:36:18.842Z,82.21
2023-01-05T16:38:46.983Z,82.08
2023-01-05T16:41:22.512Z,82.20
2023-01-05T16:43:56.157Z,81.53
2023-01-05T16:46:39.686Z,81.12
2023-01-05T16:49:27.308Z,81.09
2023-01-05T16:51:56.866Z,81.29
2023-01-05T16:54:35.096Z,81.41
2023-01-05T16:57:06.083Z,81.38
2023-01-05T16:59:46.509Z,80.96
2023-01-05T17:02:44.615Z,81.63
2023-01-05T17:05:14.776Z,82.49
2023-01-05T17:07:45.077Z,82.61
2023-01-05T17:10:21.591Z,82.14
2023-01-05T17:12:57.561Z,82.94
2023-01-05T17:15:29.552Z,82.10
2023-01-05T17:17:58.123Z,82.48
2023-01-05T17:20:30.586Z,82.46
2023-01-05T17:22:58.481Z,81.71
2023-01-05T17:25:34.431Z,81.83
2023-01-05T17:28:03.663Z,81.96
2023-01-05T17:30:31.557Z,81.63
2023-01-05T17:32:59.529Z,81.76
2023-01-05T17:35:27.422Z,82.35
2023-01-05T17:37:55.210Z,82.10
2023-01-05T17:40:23.389Z,82.17
2023-01-05T17:42:51.339Z,82.36
2023-01-05T17:45:23.243Z,82.63
2023-01-05T17:47:52.262Z,82.20
2023-01-05T17:50:22.503Z,82.89
2023-01-05T17:52:50.383Z,82.34
2023-01-05T17:55:18.455Z,82.58
2023-01-05T17:57:46.316Z,82.61
2023-01-05T18:00:18.120Z,83.47
2023-01-05T18:02:49.829Z,82.79
2023-01-05T18:05:18.247Z,82.69
2023-01-05T18:07:46.224Z,82.36
2023-01-05T18:10:16.371Z,82.60
2023-01-05T18:12:44.236Z,83.41
2023-01-05T18:15:13.212Z,83.88
2023-01-05T18:17:42.388Z,83.60
2023-01-05T18:20:16.866Z,84.30
2023-01-05T18:22:46.674Z,83.83
2023-01-05T18:25:14.516Z,84.60
2023-01-05T18:27:42.335Z,84.72
2023-01-05T18:30:11.598Z,84.70
2023-01-05T18:32:40.298Z,85.43
2023-01-05T18:35:10.382Z,84.82
2023-01-05T18:37:40.918Z,85.05
2023-01-05T18:40:10.738Z,85.71
2023-01-05T18:42:39.205Z,86.02
2023-01-05T18:45:18.957Z,85.77
2023-01-05T18:47:56.992Z,86.21
2023-01-05T18:50:25.162Z,86.77
2023-01-05T18:52:54.455Z,86.01
2023-01-05T18:55:22.340Z,86.49
2023-01-05T18:57:50.280Z,87.18
2023-01-05T19:00:18.535Z,86.75
2023-01-05T19:02:46.381Z,87.01
2023-01-05T19:05:14.385Z,86.62
2023-01-05T19:07:42.280Z,86.53
2023-01-05T19:10:11.904Z,87.44
2023-01-05T19:12:39.913Z,86.98
2023-01-05T19:15:08.639Z,87.87
2023-01-05T19:17:36.508Z,87.59
2023-01-05T19:20:04.722Z,87.94
2023-01-05T19:22:34.503Z,88.41
2023-01-05T19:25:02.509Z,88.52
2023-01-05T19:27:31.753Z,88.91
2023-01-05T19:29:59.592Z,89.76
2023-01-05T19:32:27.383Z,89.29
2023-01-05T19:34:55.325Z,90.44
2023-01-05T19:37:23.130Z,90.72
2023-01-05T19:39:50.984Z,91.08
2023-01-05T19:42:18.942Z,90.31
2023-01-05T19:44:48.809Z,90.49
2023-01-05T19:47:16.642Z,90.15
2023-01-05T19:49:44.508Z,89.79
2023-01-05T19:52:13.809Z,89.92
2023-01-05T19:54:42.715Z,88.83
2023-01-05T19:57:13.076Z,89.42
2023-01-05T19:59:41.461Z,88.56
2023-01-05T20:02:11.573Z,88.31
2023-01-05T20:04:39.509Z,88.02
2023-01-05T20:07:10.739Z,87.64
2023-01-05T20:09:39.405Z,87.53
2023-01-05T20:12:14.853Z,87.13
2023-01-05T20:14:46.376Z,86.86
2023-01-05T20:17:16.203Z,87.13
2023-01-05T20:19:44.274Z,87.42
2023-01-05T20:22:14.875Z,86.82
2023-01-05T20:24:43.802Z,86.35
2023-01-05T20:27:13.650Z,86.62
2023-01-05T20:29:42.001Z,86.44
2023-01-05T20:32:16.507Z,86.34
2023-01-05T20:34:54.193Z,86.25
2023-01-05T20:37:23.664Z,86.04
2023-01-05T20:39:53.025Z,85.79
2023-01-05T20:42:20.832Z,85.74
2023-01-05T20:44:49.886Z,85.54
2023-01-05T20:47:18.266Z,85.89
2023-01-05T20:49:48.118Z,85.34
2023-01-05T20:52:18.768Z,86.01
2023-01-05T20:54:47.106Z,85.78
2023-01-05T20:57:14.951Z,85.97
2023-01-05T20:59:43.476Z,86.57
2023-01-05T21:02:23.109Z,87.37
2023-01-05T21:04:54.173Z,86.87
2023-01-05T21:07:22.690Z,87.34
2023-01-05T21:09:51.699Z,87.43
2023-01-05T21:12:20.277Z,87.75
2023-01-05T21:14:48.198Z,88.25
2023-01-05T21:17:16.828Z,88.33
2023-01-05T21:19:44.855Z,88.23
2023-01-05T21:22:15.537Z,87.84
2023-01-05T21:24:45.368Z,88.29
2023-01-05T21:27:13.287Z,88.44
2023-01-05T21:29:41.134Z,88.89
2023-01-05T21:32:09.272Z,89.36
2023-01-05T21:34:37.460Z,89.67
2023-01-05T21:37:05.367Z,88.55
2023-01-05T21:39:34.924Z,88.90
2023-01-05T21:42:20.200Z,88.99
2023-01-05T21:44:48.700Z,89.24
2023-01-05T21:47:16.771Z,90.15
2023-01-05T21:49:44.648Z,90.14
2023-01-05T21:52:29.895Z,89.72
2023-01-05T21:55:16.939Z,89.94
2023-01-05T21:57:44.884Z,90.81
2023-01-05T22:00:13.926Z,91.97
2023-01-05T22:02:42.220Z,92.58
2023-01-05T22:05:10.634Z,92.05
2023-01-05T22:07:38.534Z,92.50
2023-01-05T22:10:11.387Z,92.47
2023-01-05T22:12:39.785Z,92.65
2023-01-05T22:15:08.408Z,92.46
2023-01-05T22:17:36.560Z,93.44
2023-01-05T22:20:04.819Z,93.69
2023-01-05T22:22:32.636Z,92.65
2023-01-05T22:25:00.483Z,93.63
2023-01-05T22:27:30.480Z,94.08
2023-01-05T22:29:58.268Z,93.79
2023-01-05T22:32:26.246Z,92.84
2023-01-05T22:34:56.204Z,93.87
2023-01-05T22:37:24.201Z,94.67
2023-01-05T22:39:52.075Z,94.13
2023-01-05T22:42:20.148Z,94.05
2023-01-05T22:44:49.457Z,93.57
2023-01-05T22:47:17.512Z,94.46
2023-01-05T22:49:45.663Z,93.73
2023-01-05T22:52:13.693Z,94.03
2023-01-05T22:54:41.902Z,93.34
2023-01-05T22:57:10.009Z,93.57
2023-01-05T22:59:38.002Z,94.05
2023-01-05T23:02:07.385Z,93.94
2023-01-05T23:04:35.564Z,94.11
2023-01-05T23:07:03.345Z,94.41
2023-01-05T23:09:31.311Z,94.04
2023-01-05T23:11:59.839Z,93.61
2023-01-05T23:14:30.794Z,94.41
2023-01-05T23:16:59.110Z,94.15
2023-01-05T23:19:28.314Z,95.19
2023-01-05T23:21:56.802Z,94.09
2023-01-05T23:24:24.862Z,95.01
2023-01-05T23:26:52.641Z,95.63
2023-01-05T23:29:20.483Z,94.87
2023-01-05T23:31:51.208Z,95.30
2023-01-05T23:34:19.172Z,95.62
2023-01-05T23:36:48.402Z,95.08
2023-01-05T23:39:16.305Z,95.16
2023-01-05T23:41:44.432Z,95.52
2023-01-05T23:44:14.045Z,96.73
2023-01-05T23:46:42.223Z,96.20
2023-01-05T23:49:10.087Z,95.86
2023-01-05T23:51:37.861Z,95.52
2023-01-05T23:54:07.282Z,96.40
2023-01-05T23:56:35.106Z,96.11
2023-01-05T23:59:05.802Z,95.81
